Arrowbear Lake, CA

3:10 AM PST on March 03, 2015 (GMT -0800)
Running Springs, CA | Change Station
CLOSE
Current Station
Personal Weather Station
Location: Running Springs, CA
Elevation: 6283 ft
Nearby Weather Stations

Elev 6283 ft 34.22 °N, 117.12 °W | Updated 56 seconds ago

Overcast
Overcast
26.1 °F
Feels Like 26 °F
N
1.0
Wind Variable Wind from ESE
Gusts 3.0 mph

Today
High -- | Low -- °F
--% Chance of Precip.
Yesterday
High -- | Low -- °F
Precip. -- in
6:14 AM 5:46 PM
Waxing Gibbous, 95% visible
Pressure 29.89 in
Visibility 0.8 miles
Clouds Overcast 100 ft
Windchill 26 °F
Dew Point 25 °F
Humidity 96%
Rainfall 0.00 in
Snow Depth Not available.
UV 0.0 out of 12
Pollen 7.80 out of 12
Air Quality Not available.
Flu Activity Not available.
METAR KL35 031055Z AUTO 00000KT 3/4SM -SN OVC001 M10/M11 A2989 RMK AO2

More Conditions Fewer Conditions

Pressure 29.89 in
Visibility 0.8 miles
Clouds Overcast 100 ft
Windchill 26 °F
Dew Point 25 °F
Humidity 96%
Rainfall 0.00 in
Snow Depth Not available.
UV 0.0 out of 12
Pollen 7.80 out of 12
Air Quality Not available.
Flu Activity Not available.
METAR KL35 031055Z AUTO 00000KT 3/4SM -SN OVC001 M10/M11 A2989 RMK AO2

More Conditions Fewer Conditions

10-Day Weather Forecast

Almanac

Astronomy

Mar. 03, 2015 Rise Set
Actual Time
Civil Twilight
Nautical Twilight
Astronomical Twilight
Moon
Length of Visible Light
Length of Day
Tomorrow will be .
, % of the Moon is Illuminated

Today's Extremes

State Highs State Lows

Community

WunderPhotos

Upload Photos

1,802,088 photos uploaded!

WunderBlogs® & News

Nearby

Air Quality

  Air Quality AQ Index Pollutant
Not available.

Snow Depth

Station Depth Elevation

Earthquake Activity

City Distance Mag. Time & Date
Minimum magnitude displayed is 2.5.

Coastal Water Temperatures

Place Temperature

Nearby Weather Stations